sensor_id;sensor_type;location;lat;lon;timestamp;pressure;altitude;pressure_sealevel;temperature
35960;BMP280;22043;50.970;7.192;2023-05-07T00:01:59;99283.69;;;14.03
35960;BMP280;22043;50.970;7.192;2023-05-07T00:04:24;99279.75;;;14.04
35960;BMP280;22043;50.970;7.192;2023-05-07T00:06:50;99278.19;;;14.03
35960;BMP280;22043;50.970;7.192;2023-05-07T00:09:16;99289.94;;;14.04
35960;BMP280;22043;50.970;7.192;2023-05-07T00:11:41;99287.97;;;14.04
35960;BMP280;22043;50.970;7.192;2023-05-07T00:14:07;99286.44;;;14.03
35960;BMP280;22043;50.970;7.192;2023-05-07T00:16:32;99293.91;;;14.03
35960;BMP280;22043;50.970;7.192;2023-05-07T00:18:58;99280.19;;;14.03
35960;BMP280;22043;50.970;7.192;2023-05-07T00:21:23;99277.13;;;14.01
35960;BMP280;22043;50.970;7.192;2023-05-07T00:23:52;99269.25;;;14.03
35960;BMP280;22043;50.970;7.192;2023-05-07T00:26:17;99285.34;;;14.01
35960;BMP280;22043;50.970;7.192;2023-05-07T00:28:44;99269.31;;;13.99
35960;BMP280;22043;50.970;7.192;2023-05-07T00:31:10;99279.59;;;13.95
35960;BMP280;22043;50.970;7.192;2023-05-07T00:33:35;99282.34;;;13.95
35960;BMP280;22043;50.970;7.192;2023-05-07T00:36:00;99278.50;;;13.93
35960;BMP280;22043;50.970;7.192;2023-05-07T00:38:27;99289.03;;;13.94
35960;BMP280;22043;50.970;7.192;2023-05-07T00:40:52;99282.78;;;13.94
35960;BMP280;22043;50.970;7.192;2023-05-07T00:43:18;99277.72;;;13.92
35960;BMP280;22043;50.970;7.192;2023-05-07T00:45:43;99282.78;;;13.94
35960;BMP280;22043;50.970;7.192;2023-05-07T00:48:08;99274.97;;;13.92
35960;BMP280;22043;50.970;7.192;2023-05-07T00:50:34;99268.72;;;13.92
35960;BMP280;22043;50.970;7.192;2023-05-07T00:53:00;99273.78;;;13.93
35960;BMP280;22043;50.970;7.192;2023-05-07T00:55:25;99281.94;;;13.97
35960;BMP280;22043;50.970;7.192;2023-05-07T00:57:51;99279.19;;;13.97
35960;BMP280;22043;50.970;7.192;2023-05-07T01:00:17;99273.25;;;13.98
35960;BMP280;22043;50.970;7.192;2023-05-07T01:02:43;99275.56;;;14.00
35960;BMP280;22043;50.970;7.192;2023-05-07T01:05:13;99265.91;;;13.95
35960;BMP280;22043;50.970;7.192;2023-05-07T01:07:43;99276.34;;;14.00
35960;BMP280;22043;50.970;7.192;2023-05-07T01:10:12;99269.31;;;13.99
35960;BMP280;22043;50.970;7.192;2023-05-07T01:12:39;99272.50;;;13.98
35960;BMP280;22043;50.970;7.192;2023-05-07T01:15:12;99256.03;;;13.98
35960;BMP280;22043;50.970;7.192;2023-05-07T01:17:40;99250.66;;;13.94
35960;BMP280;22043;50.970;7.192;2023-05-07T01:20:10;99255.47;;;13.90
35960;BMP280;22043;50.970;7.192;2023-05-07T01:22:38;99244.41;;;13.94
35960;BMP280;22043;50.970;7.192;2023-05-07T01:25:06;99243.66;;;13.93
35960;BMP280;22043;50.970;7.192;2023-05-07T01:27:36;99239.34;;;13.92
35960;BMP280;22043;50.970;7.192;2023-05-07T01:30:06;99228.81;;;13.91
35960;BMP280;22043;50.970;7.192;2023-05-07T01:33:00;99229.59;;;13.91
35960;BMP280;22043;50.970;7.192;2023-05-07T01:35:41;99219.41;;;13.92
35960;BMP280;22043;50.970;7.192;2023-05-07T01:38:09;99221.38;;;13.91
35960;BMP280;22043;50.970;7.192;2023-05-07T01:40:38;99227.88;;;13.97
35960;BMP280;22043;50.970;7.192;2023-05-07T01:43:09;99225.34;;;13.90
35960;BMP280;22043;50.970;7.192;2023-05-07T01:45:38;99220.16;;;13.92
35960;BMP280;22043;50.970;7.192;2023-05-07T01:48:07;99229.94;;;13.93
35960;BMP280;22043;50.970;7.192;2023-05-07T01:50:37;99226.19;;;13.87
35960;BMP280;22043;50.970;7.192;2023-05-07T01:53:08;99242.09;;;13.92
35960;BMP280;22043;50.970;7.192;2023-05-07T01:55:33;99237.13;;;13.87
35960;BMP280;22043;50.970;7.192;2023-05-07T01:57:59;99239.78;;;13.91
35960;BMP280;22043;50.970;7.192;2023-05-07T02:00:25;99225.19;;;13.81
35960;BMP280;22043;50.970;7.192;2023-05-07T02:02:54;99235.16;;;13.88
35960;BMP280;22043;50.970;7.192;2023-05-07T02:05:31;99234.50;;;13.83
35960;BMP280;22043;50.970;7.192;2023-05-07T02:08:03;99231.75;;;13.83
35960;BMP280;22043;50.970;7.192;2023-05-07T02:10:34;99246.25;;;13.84
35960;BMP280;22043;50.970;7.192;2023-05-07T02:13:07;99231.75;;;13.83
35960;BMP280;22043;50.970;7.192;2023-05-07T02:15:32;99242.22;;;13.89
35960;BMP280;22043;50.970;7.192;2023-05-07T02:18:07;99239.13;;;13.87
35960;BMP280;22043;50.970;7.192;2023-05-07T02:20:34;99230.56;;;13.84
35960;BMP280;22043;50.970;7.192;2023-05-07T02:23:01;99230.56;;;13.84
35960;BMP280;22043;50.970;7.192;2023-05-07T02:25:31;99230.66;;;13.81
35960;BMP280;22043;50.970;7.192;2023-05-07T02:27:57;99232.72;;;13.77
35960;BMP280;22043;50.970;7.192;2023-05-07T02:30:55;99233.56;;;13.74
35960;BMP280;22043;50.970;7.192;2023-05-07T02:33:27;99230.59;;;13.68
35960;BMP280;22043;50.970;7.192;2023-05-07T02:35:55;99241.91;;;13.70
35960;BMP280;22043;50.970;7.192;2023-05-07T02:38:22;99243.44;;;13.71
35960;BMP280;22043;50.970;7.192;2023-05-07T02:40:49;99240.88;;;13.64
35960;BMP280;22043;50.970;7.192;2023-05-07T02:43:15;99246.28;;;13.68
35960;BMP280;22043;50.970;7.192;2023-05-07T02:45:49;99239.22;;;13.67
35960;BMP280;22043;50.970;7.192;2023-05-07T02:48:15;99235.72;;;13.66
35960;BMP280;22043;50.970;7.192;2023-05-07T02:50:40;99246.78;;;13.63
35960;BMP280;22043;50.970;7.192;2023-05-07T02:53:09;99243.69;;;13.61
35960;BMP280;22043;50.970;7.192;2023-05-07T02:55:44;99249.09;;;13.64
35960;BMP280;22043;50.970;7.192;2023-05-07T02:58:13;99230.09;;;13.57
35960;BMP280;22043;50.970;7.192;2023-05-07T03:00:40;99237.53;;;13.57
35960;BMP280;22043;50.970;7.192;2023-05-07T03:03:32;99239.84;;;13.58
35960;BMP280;22043;50.970;7.192;2023-05-07T03:05:58;99233.59;;;13.58
35960;BMP280;22043;50.970;7.192;2023-05-07T03:08:24;99234.72;;;13.60
35960;BMP280;22043;50.970;7.192;2023-05-07T03:10:50;99230.88;;;13.58
35960;BMP280;22043;50.970;7.192;2023-05-07T03:13:27;99236.00;;;13.56
35960;BMP280;22043;50.970;7.192;2023-05-07T03:15:55;99222.72;;;13.54
35960;BMP280;22043;50.970;7.192;2023-05-07T03:18:24;99217.72;;;13.52
35960;BMP280;22043;50.970;7.192;2023-05-07T03:20:51;99219.69;;;13.52
35960;BMP280;22043;50.970;7.192;2023-05-07T03:23:19;99215.41;;;13.51
35960;BMP280;22043;50.970;7.192;2023-05-07T03:25:48;99222.84;;;13.50
35960;BMP280;22043;50.970;7.192;2023-05-07T03:28:17;99223.69;;;13.47
35960;BMP280;22043;50.970;7.192;2023-05-07T03:30:49;99223.69;;;13.47
35960;BMP280;22043;50.970;7.192;2023-05-07T03:33:16;99232.31;;;13.46
35960;BMP280;22043;50.970;7.192;2023-05-07T03:35:44;99236.16;;;13.48
35960;BMP280;22043;50.970;7.192;2023-05-07T03:38:13;99226.94;;;13.42
35960;BMP280;22043;50.970;7.192;2023-05-07T03:40:39;99225.47;;;13.38
35960;BMP280;22043;50.970;7.192;2023-05-07T03:43:05;99229.69;;;13.42
35960;BMP280;22043;50.970;7.192;2023-05-07T03:45:46;99213.06;;;13.33
35960;BMP280;22043;50.970;7.192;2023-05-07T03:48:16;99222.84;;;13.34
35960;BMP280;22043;50.970;7.192;2023-05-07T03:50:46;99224.13;;;13.30
35960;BMP280;22043;50.970;7.192;2023-05-07T03:53:16;99220.25;;;13.27
35960;BMP280;22043;50.970;7.192;2023-05-07T03:55:44;99220.59;;;13.29
35960;BMP280;22043;50.970;7.192;2023-05-07T03:58:15;99223.34;;;13.29
35960;BMP280;22043;50.970;7.192;2023-05-07T04:00:41;99239.25;;;13.34
35960;BMP280;22043;50.970;7.192;2023-05-07T04:03:17;99222.22;;;13.27
35960;BMP280;22043;50.970;7.192;2023-05-07T04:05:43;99227.28;;;13.28
35960;BMP280;22043;50.970;7.192;2023-05-07T04:08:16;99233.88;;;13.31
35960;BMP280;22043;50.970;7.192;2023-05-07T04:10:47;99242.09;;;13.31
35960;BMP280;22043;50.970;7.192;2023-05-07T04:13:12;99247.91;;;13.33
35960;BMP280;22043;50.970;7.192;2023-05-07T04:15:38;99235.84;;;13.30
35960;BMP280;22043;50.970;7.192;2023-05-07T04:18:08;99238.22;;;13.28
35960;BMP280;22043;50.970;7.192;2023-05-07T04:20:34;99249.16;;;13.28
35960;BMP280;22043;50.970;7.192;2023-05-07T04:23:03;99251.84;;;13.32
35960;BMP280;22043;50.970;7.192;2023-05-07T04:25:30;99241.66;;;13.32
35960;BMP280;22043;50.970;7.192;2023-05-07T04:28:07;99242.44;;;13.33
35960;BMP280;22043;50.970;7.192;2023-05-07T04:30:33;99250.47;;;13.40
35960;BMP280;22043;50.970;7.192;2023-05-07T04:33:01;99248.50;;;13.40
35960;BMP280;22043;50.970;7.192;2023-05-07T04:35:30;99247.13;;;13.48
35960;BMP280;22043;50.970;7.192;2023-05-07T04:37:57;99250.88;;;13.54
35960;BMP280;22043;50.970;7.192;2023-05-07T04:40:23;99245.94;;;13.49
35960;BMP280;22043;50.970;7.192;2023-05-07T04:42:52;99247.38;;;13.54
35960;BMP280;22043;50.970;7.192;2023-05-07T04:45:18;99253.88;;;13.60
35960;BMP280;22043;50.970;7.192;2023-05-07T04:47:46;99256.78;;;13.69
35960;BMP280;22043;50.970;7.192;2023-05-07T04:50:12;99242.84;;;13.64
35960;BMP280;22043;50.970;7.192;2023-05-07T04:52:42;99236.09;;;13.68
35960;BMP280;22043;50.970;7.192;2023-05-07T04:55:09;99247.63;;;13.76
35960;BMP280;22043;50.970;7.192;2023-05-07T04:57:37;99235.47;;;13.77
35960;BMP280;22043;50.970;7.192;2023-05-07T05:00:08;99240.78;;;13.84
35960;BMP280;22043;50.970;7.192;2023-05-07T05:02:36;99245.34;;;13.87
35960;BMP280;22043;50.970;7.192;2023-05-07T05:05:05;99241.25;;;13.95
35960;BMP280;22043;50.970;7.192;2023-05-07T05:07:31;99237.28;;;13.96
35960;BMP280;22043;50.970;7.192;2023-05-07T05:09:56;99238.75;;;14.01
35960;BMP280;22043;50.970;7.192;2023-05-07T05:12:23;99255.00;;;14.08
35960;BMP280;22043;50.970;7.192;2023-05-07T05:14:49;99248.81;;;14.04
35960;BMP280;22043;50.970;7.192;2023-05-07T05:17:16;99246.66;;;14.11
35960;BMP280;22043;50.970;7.192;2023-05-07T05:19:42;99246.13;;;14.17
35960;BMP280;22043;50.970;7.192;2023-05-07T05:22:07;99251.97;;;14.19
35960;BMP280;22043;50.970;7.192;2023-05-07T05:24:33;99250.34;;;14.21
35960;BMP280;22043;50.970;7.192;2023-05-07T05:27:00;99243.97;;;14.24
35960;BMP280;22043;50.970;7.192;2023-05-07T05:29:29;99259.88;;;14.29
35960;BMP280;22043;50.970;7.192;2023-05-07T05:31:57;99257.72;;;14.37
35960;BMP280;22043;50.970;7.192;2023-05-07T05:34:23;99248.41;;;14.34
35960;BMP280;22043;50.970;7.192;2023-05-07T05:36:49;99261.03;;;14.45
35960;BMP280;22043;50.970;7.192;2023-05-07T05:39:15;99269.38;;;14.54
35960;BMP280;22043;50.970;7.192;2023-05-07T05:41:41;99262.94;;;14.60
35960;BMP280;22043;50.970;7.192;2023-05-07T05:44:07;99255.59;;;14.57
35960;BMP280;22043;50.970;7.192;2023-05-07T05:46:33;99256.25;;;14.61
35960;BMP280;22043;50.970;7.192;2023-05-07T05:49:00;99262.06;;;14.63
35960;BMP280;22043;50.970;7.192;2023-05-07T05:51:26;99264.28;;;14.68
35960;BMP280;22043;50.970;7.192;2023-05-07T05:53:52;99269.75;;;14.68
35960;BMP280;22043;50.970;7.192;2023-05-07T05:56:21;99275.13;;;14.72
35960;BMP280;22043;50.970;7.192;2023-05-07T05:58:47;99262.97;;;14.73
35960;BMP280;22043;50.970;7.192;2023-05-07T06:01:13;99269.00;;;14.81
35960;BMP280;22043;50.970;7.192;2023-05-07T06:03:39;99265.25;;;14.87
35960;BMP280;22043;50.970;7.192;2023-05-07T06:06:11;99261.41;;;14.85
35960;BMP280;22043;50.970;7.192;2023-05-07T06:08:41;99262.41;;;14.91
35960;BMP280;22043;50.970;7.192;2023-05-07T06:11:07;99265.81;;;14.95
35960;BMP280;22043;50.970;7.192;2023-05-07T06:13:36;99267.78;;;14.94
35960;BMP280;22043;50.970;7.192;2023-05-07T06:16:02;99269.13;;;15.02
35960;BMP280;22043;50.970;7.192;2023-05-07T06:18:29;99280.31;;;15.08
35960;BMP280;22043;50.970;7.192;2023-05-07T06:20:55;99269.41;;;15.04
35960;BMP280;22043;50.970;7.192;2023-05-07T06:23:27;99278.22;;;15.12
35960;BMP280;22043;50.970;7.192;2023-05-07T06:25:53;99281.41;;;15.11
35960;BMP280;22043;50.970;7.192;2023-05-07T06:28:23;99270.75;;;15.13
35960;BMP280;22043;50.970;7.192;2023-05-07T06:30:50;99277.66;;;15.17
35960;BMP280;22043;50.970;7.192;2023-05-07T06:33:16;99270.63;;;15.16
35960;BMP280;22043;50.970;7.192;2023-05-07T06:35:42;99275.59;;;15.21
35960;BMP280;22043;50.970;7.192;2023-05-07T06:38:08;99279.84;;;15.35
35960;BMP280;22043;50.970;7.192;2023-05-07T06:40:34;99274.69;;;15.37
35960;BMP280;22043;50.970;7.192;2023-05-07T06:43:00;99290.19;;;15.44
35960;BMP280;22043;50.970;7.192;2023-05-07T06:45:39;99282.38;;;15.42
35960;BMP280;22043;50.970;7.192;2023-05-07T06:48:06;99284.69;;;15.44
35960;BMP280;22043;50.970;7.192;2023-05-07T06:50:53;99276.75;;;15.46
35960;BMP280;22043;50.970;7.192;2023-05-07T06:53:22;99282.44;;;15.51
35960;BMP280;22043;50.970;7.192;2023-05-07T06:55:48;99297.50;;;15.59
35960;BMP280;22043;50.970;7.192;2023-05-07T06:58:18;99298.28;;;15.60
35960;BMP280;22043;50.970;7.192;2023-05-07T07:00:44;99282.09;;;15.62
35960;BMP280;22043;50.970;7.192;2023-05-07T07:03:22;99280.47;;;15.65
35960;BMP280;22043;50.970;7.192;2023-05-07T07:05:51;99280.66;;;15.70
35960;BMP280;22043;50.970;7.192;2023-05-07T07:08:17;99280.53;;;15.74
35960;BMP280;22043;50.970;7.192;2023-05-07T07:10:46;99285.28;;;15.73
35960;BMP280;22043;50.970;7.192;2023-05-07T07:17:13;99282.72;;;15.79
35960;BMP280;22043;50.970;7.192;2023-05-07T07:19:48;99293.47;;;15.86
35960;BMP280;22043;50.970;7.192;2023-05-07T07:22:16;99295.88;;;15.84
35960;BMP280;22043;50.970;7.192;2023-05-07T07:24:45;99297.22;;;15.79
35960;BMP280;22043;50.970;7.192;2023-05-07T07:27:14;99304.91;;;15.84
35960;BMP280;22043;50.970;7.192;2023-05-07T07:29:40;99303.25;;;15.87
35960;BMP280;22043;50.970;7.192;2023-05-07T07:32:09;99305.97;;;16.00
35960;BMP280;22043;50.970;7.192;2023-05-07T07:34:42;99301.41;;;16.06
35960;BMP280;22043;50.970;7.192;2023-05-07T07:37:24;99304.13;;;16.18
35960;BMP280;22043;50.970;7.192;2023-05-07T07:40:00;99306.50;;;16.29
35960;BMP280;22043;50.970;7.192;2023-05-07T07:42:26;99298.81;;;16.24
35960;BMP280;22043;50.970;7.192;2023-05-07T07:44:56;99294.13;;;16.34
35960;BMP280;22043;50.970;7.192;2023-05-07T07:47:29;99305.97;;;16.43
35960;BMP280;22043;50.970;7.192;2023-05-07T07:49:57;99300.47;;;16.43
35960;BMP280;22043;50.970;7.192;2023-05-07T07:52:39;99305.59;;;16.54
35960;BMP280;22043;50.970;7.192;2023-05-07T07:55:07;99297.00;;;16.52
35960;BMP280;22043;50.970;7.192;2023-05-07T07:57:38;99313.13;;;16.63
35960;BMP280;22043;50.970;7.192;2023-05-07T08:00:05;99306.53;;;16.60
35960;BMP280;22043;50.970;7.192;2023-05-07T08:02:42;99314.50;;;16.58
35960;BMP280;22043;50.970;7.192;2023-05-07T08:05:08;99317.28;;;16.67
35960;BMP280;22043;50.970;7.192;2023-05-07T08:07:39;99324.38;;;16.77
35960;BMP280;22043;50.970;7.192;2023-05-07T08:10:09;99312.63;;;16.86
35960;BMP280;22043;50.970;7.192;2023-05-07T08:12:35;99315.75;;;16.97
35960;BMP280;22043;50.970;7.192;2023-05-07T08:15:01;99320.09;;;17.16
35960;BMP280;22043;50.970;7.192;2023-05-07T08:17:27;99319.25;;;17.29
35960;BMP280;22043;50.970;7.192;2023-05-07T08:23:23;99325.44;;;17.69
35960;BMP280;22043;50.970;7.192;2023-05-07T08:25:49;99322.53;;;17.73
35960;BMP280;22043;50.970;7.192;2023-05-07T08:28:19;99321.75;;;17.82
35960;BMP280;22043;50.970;7.192;2023-05-07T08:30:47;99320.84;;;17.94
35960;BMP280;22043;50.970;7.192;2023-05-07T08:33:13;99321.91;;;18.05
35960;BMP280;22043;50.970;7.192;2023-05-07T08:35:39;99324.81;;;18.11
35960;BMP280;22043;50.970;7.192;2023-05-07T08:38:06;99325.16;;;18.13
35960;BMP280;22043;50.970;7.192;2023-05-07T08:40:37;99318.84;;;18.22
35960;BMP280;22043;50.970;7.192;2023-05-07T08:43:05;99332.28;;;18.29
35960;BMP280;22043;50.970;7.192;2023-05-07T08:45:39;99331.41;;;18.32
35960;BMP280;22043;50.970;7.192;2023-05-07T08:48:15;99325.91;;;18.23
35960;BMP280;22043;50.970;7.192;2023-05-07T08:50:44;99331.25;;;18.26
35960;BMP280;22043;50.970;7.192;2023-05-07T08:53:11;99321.44;;;18.25
35960;BMP280;22043;50.970;7.192;2023-05-07T08:55:39;99319.28;;;18.20
35960;BMP280;22043;50.970;7.192;2023-05-07T08:58:08;99321.28;;;18.20
35960;BMP280;22043;50.970;7.192;2023-05-07T09:00:38;99338.00;;;18.16
35960;BMP280;22043;50.970;7.192;2023-05-07T09:03:04;99330.78;;;18.19
35960;BMP280;22043;50.970;7.192;2023-05-07T09:05:33;99315.31;;;18.21
35960;BMP280;22043;50.970;7.192;2023-05-07T09:08:02;99322.22;;;18.26
35960;BMP280;22043;50.970;7.192;2023-05-07T09:10:33;99324.81;;;18.29
35960;BMP280;22043;50.970;7.192;2023-05-07T09:13:02;99315.94;;;18.25
35960;BMP280;22043;50.970;7.192;2023-05-07T09:15:29;99317.63;;;18.23
35960;BMP280;22043;50.970;7.192;2023-05-07T09:17:59;99326.34;;;18.30
35960;BMP280;22043;50.970;7.192;2023-05-07T09:24:36;99310.09;;;18.23
35960;BMP280;22043;50.970;7.192;2023-05-07T09:27:06;99319.13;;;18.24
35960;BMP280;22043;50.970;7.192;2023-05-07T09:29:44;99328.66;;;18.23
35960;BMP280;22043;50.970;7.192;2023-05-07T09:32:48;99315.47;;;18.27
35960;BMP280;22043;50.970;7.192;2023-05-07T09:35:20;99308.72;;;18.19
35960;BMP280;22043;50.970;7.192;2023-05-07T09:37:59;99322.38;;;18.22
35960;BMP280;22043;50.970;7.192;2023-05-07T09:41:19;99311.63;;;18.15
35960;BMP280;22043;50.970;7.192;2023-05-07T09:43:54;99327.28;;;18.27
35960;BMP280;22043;50.970;7.192;2023-05-07T09:46:36;99327.56;;;18.38
35960;BMP280;22043;50.970;7.192;2023-05-07T09:49:30;99320.47;;;18.56
35960;BMP280;22043;50.970;7.192;2023-05-07T09:55:10;99336.72;;;18.63
35960;BMP280;22043;50.970;7.192;2023-05-07T09:57:54;99314.63;;;18.54
35960;BMP280;22043;50.970;7.192;2023-05-07T10:00:22;99314.63;;;18.63
35960;BMP280;22043;50.970;7.192;2023-05-07T10:03:19;99326.59;;;18.60
35960;BMP280;22043;50.970;7.192;2023-05-07T10:06:08;99308.34;;;18.53
35960;BMP280;22043;50.970;7.192;2023-05-07T10:08:36;99318.34;;;18.51
35960;BMP280;22043;50.970;7.192;2023-05-07T10:26:05;99308.44;;;19.10
35960;BMP280;22043;50.970;7.192;2023-05-07T10:28:58;99314.00;;;19.25
35960;BMP280;22043;50.970;7.192;2023-05-07T10:34:19;99314.38;;;19.42
35960;BMP280;22043;50.970;7.192;2023-05-07T10:36:53;99315.09;;;19.51
35960;BMP280;22043;50.970;7.192;2023-05-07T10:39:29;99316.78;;;19.49
35960;BMP280;22043;50.970;7.192;2023-05-07T10:41:55;99313.75;;;19.47
35960;BMP280;22043;50.970;7.192;2023-05-07T10:44:33;99317.53;;;19.49
35960;BMP280;22043;50.970;7.192;2023-05-07T10:47:16;99306.03;;;19.51
35960;BMP280;22043;50.970;7.192;2023-05-07T10:50:19;99324.06;;;19.61
35960;BMP280;22043;50.970;7.192;2023-05-07T10:52:36;99322.31;;;19.73
35960;BMP280;22043;50.970;7.192;2023-05-07T10:57:46;99305.06;;;19.78
35960;BMP280;22043;50.970;7.192;2023-05-07T11:03:06;99310.81;;;20.04
35960;BMP280;22043;50.970;7.192;2023-05-07T11:08:59;99303.47;;;20.30
35960;BMP280;22043;50.970;7.192;2023-05-07T11:11:57;99302.88;;;20.41
35960;BMP280;22043;50.970;7.192;2023-05-07T11:17:09;99301.59;;;20.71
35960;BMP280;22043;50.970;7.192;2023-05-07T11:19:57;99303.13;;;20.72
35960;BMP280;22043;50.970;7.192;2023-05-07T11:23:04;99284.41;;;20.67
35960;BMP280;22043;50.970;7.192;2023-05-07T11:25:39;99300.94;;;20.76
35960;BMP280;22043;50.970;7.192;2023-05-07T11:28:36;99293.50;;;20.68
35960;BMP280;22043;50.970;7.192;2023-05-07T11:31:11;99290.34;;;20.60
35960;BMP280;22043;50.970;7.192;2023-05-07T11:33:53;99286.81;;;20.59
35960;BMP280;22043;50.970;7.192;2023-05-07T11:39:34;99280.00;;;20.75
35960;BMP280;22043;50.970;7.192;2023-05-07T11:42:06;99284.22;;;20.71
35960;BMP280;22043;50.970;7.192;2023-05-07T11:44:45;99290.91;;;20.99
35960;BMP280;22043;50.970;7.192;2023-05-07T11:47:24;99290.50;;;20.86
35960;BMP280;22043;50.970;7.192;2023-05-07T11:50:19;99285.38;;;20.99
35960;BMP280;22043;50.970;7.192;2023-05-07T11:53:00;99290.91;;;20.99
35960;BMP280;22043;50.970;7.192;2023-05-07T11:58:55;99290.22;;;20.84
35960;BMP280;22043;50.970;7.192;2023-05-07T12:01:23;99278.75;;;20.76
35960;BMP280;22043;50.970;7.192;2023-05-07T12:04:05;99282.22;;;20.71
35960;BMP280;22043;50.970;7.192;2023-05-07T12:09:47;99283.34;;;20.79
35960;BMP280;22043;50.970;7.192;2023-05-07T12:12:14;99294.34;;;20.74
35960;BMP280;22043;50.970;7.192;2023-05-07T12:14:57;99283.09;;;20.62
35960;BMP280;22043;50.970;7.192;2023-05-07T12:17:26;99295.91;;;20.60
35960;BMP280;22043;50.970;7.192;2023-05-07T12:20:00;99284.94;;;20.51
35960;BMP280;22043;50.970;7.192;2023-05-07T12:22:40;99295.13;;;20.59
35960;BMP280;22043;50.970;7.192;2023-05-07T12:25:11;99284.63;;;20.63
35960;BMP280;22043;50.970;7.192;2023-05-07T12:27:45;99291.84;;;20.76
35960;BMP280;22043;50.970;7.192;2023-05-07T12:30:22;99293.78;;;20.70
35960;BMP280;22043;50.970;7.192;2023-05-07T12:33:02;99296.50;;;20.64
35960;BMP280;22043;50.970;7.192;2023-05-07T12:35:43;99291.50;;;20.53
35960;BMP280;22043;50.970;7.192;2023-05-07T12:38:14;99290.00;;;20.52
35960;BMP280;22043;50.970;7.192;2023-05-07T12:40:50;99296.78;;;20.51
35960;BMP280;22043;50.970;7.192;2023-05-07T12:43:49;99302.13;;;20.55
35960;BMP280;22043;50.970;7.192;2023-05-07T12:46:16;99299.06;;;20.53
35960;BMP280;22043;50.970;7.192;2023-05-07T12:48:56;99296.84;;;20.57
35960;BMP280;22043;50.970;7.192;2023-05-07T12:51:34;99296.84;;;20.57
35960;BMP280;22043;50.970;7.192;2023-05-07T12:54:37;99300.50;;;20.48
35960;BMP280;22043;50.970;7.192;2023-05-07T13:00:10;99293.91;;;20.46
35960;BMP280;22043;50.970;7.192;2023-05-07T13:06:35;99302.69;;;20.44
35960;BMP280;22043;50.970;7.192;2023-05-07T13:09:13;99295.44;;;20.47
35960;BMP280;22043;50.970;7.192;2023-05-07T13:12:38;99308.53;;;20.46
35960;BMP280;22043;50.970;7.192;2023-05-07T13:15:35;99298.69;;;20.30
35960;BMP280;22043;50.970;7.192;2023-05-07T13:33:30;99306.06;;;20.33
35960;BMP280;22043;50.970;7.192;2023-05-07T13:35:58;99309.00;;;20.30
35960;BMP280;22043;50.970;7.192;2023-05-07T13:38:29;99306.63;;;20.23
35960;BMP280;22043;50.970;7.192;2023-05-07T13:40:57;99297.28;;;20.20
35960;BMP280;22043;50.970;7.192;2023-05-07T13:43:25;99307.97;;;20.27
35960;BMP280;22043;50.970;7.192;2023-05-07T13:45:53;99296.69;;;20.31
35960;BMP280;22043;50.970;7.192;2023-05-07T13:48:22;99301.47;;;20.45
35960;BMP280;22043;50.970;7.192;2023-05-07T13:50:48;99288.25;;;20.55
35960;BMP280;22043;50.970;7.192;2023-05-07T14:03:56;99289.16;;;20.81
35960;BMP280;22043;50.970;7.192;2023-05-07T14:06:36;99300.16;;;20.76
35960;BMP280;22043;50.970;7.192;2023-05-07T14:09:12;99295.22;;;20.65
35960;BMP280;22043;50.970;7.192;2023-05-07T14:12:05;99284.06;;;20.45
35960;BMP280;22043;50.970;7.192;2023-05-07T14:15:17;99280.84;;;20.31
35960;BMP280;22043;50.970;7.192;2023-05-07T14:17:45;99289.25;;;20.22
35960;BMP280;22043;50.970;7.192;2023-05-07T14:20:38;99298.69;;;20.16
35960;BMP280;22043;50.970;7.192;2023-05-07T14:23:16;99295.53;;;19.93
35960;BMP280;22043;50.970;7.192;2023-05-07T14:26:18;99307.47;;;19.85
35960;BMP280;22043;50.970;7.192;2023-05-07T14:29:47;99313.88;;;19.67
35960;BMP280;22043;50.970;7.192;2023-05-07T14:32:23;99312.78;;;19.50
35960;BMP280;22043;50.970;7.192;2023-05-07T14:34:57;99323.59;;;19.39
35960;BMP280;22043;50.970;7.192;2023-05-07T14:37:27;99321.03;;;19.11
35960;BMP280;22043;50.970;7.192;2023-05-07T14:39:58;99338.75;;;18.86
35960;BMP280;22043;50.970;7.192;2023-05-07T14:42:34;99331.19;;;18.54
35960;BMP280;22043;50.970;7.192;2023-05-07T14:45:03;99330.66;;;18.22
35960;BMP280;22043;50.970;7.192;2023-05-07T14:47:51;99344.59;;;18.00
35960;BMP280;22043;50.970;7.192;2023-05-07T14:53:31;99344.69;;;17.51
35960;BMP280;22043;50.970;7.192;2023-05-07T14:55:57;99335.44;;;17.27
35960;BMP280;22043;50.970;7.192;2023-05-07T14:58:40;99345.44;;;17.02
35960;BMP280;22043;50.970;7.192;2023-05-07T15:01:06;99340.13;;;16.77
35960;BMP280;22043;50.970;7.192;2023-05-07T15:03:35;99346.41;;;16.55
35960;BMP280;22043;50.970;7.192;2023-05-07T15:06:09;99337.97;;;16.28
35960;BMP280;22043;50.970;7.192;2023-05-07T15:11:49;99356.34;;;15.97
35960;BMP280;22043;50.970;7.192;2023-05-07T15:14:31;99379.78;;;15.88
35960;BMP280;22043;50.970;7.192;2023-05-07T15:17:08;99383.00;;;15.74
35960;BMP280;22043;50.970;7.192;2023-05-07T15:19:34;99380.81;;;15.69
35960;BMP280;22043;50.970;7.192;2023-05-07T15:22:02;99388.63;;;15.71
35960;BMP280;22043;50.970;7.192;2023-05-07T15:24:29;99390.03;;;15.75
35960;BMP280;22043;50.970;7.192;2023-05-07T15:26:57;99390.66;;;15.92
35960;BMP280;22043;50.970;7.192;2023-05-07T15:29:24;99362.28;;;15.95
35960;BMP280;22043;50.970;7.192;2023-05-07T15:31:52;99369.34;;;16.18
35960;BMP280;22043;50.970;7.192;2023-05-07T15:34:18;99371.63;;;16.32
35960;BMP280;22043;50.970;7.192;2023-05-07T15:36:44;99383.47;;;16.42
35960;BMP280;22043;50.970;7.192;2023-05-07T15:39:14;99385.00;;;16.65
35960;BMP280;22043;50.970;7.192;2023-05-07T15:41:48;99368.78;;;16.58
35960;BMP280;22043;50.970;7.192;2023-05-07T15:44:17;99374.63;;;16.69
35960;BMP280;22043;50.970;7.192;2023-05-07T15:47:04;99394.75;;;16.78
35960;BMP280;22043;50.970;7.192;2023-05-07T15:49:37;99381.28;;;16.80
35960;BMP280;22043;50.970;7.192;2023-05-07T15:52:26;99388.31;;;16.81
35960;BMP280;22043;50.970;7.192;2023-05-07T15:54:53;99394.97;;;16.93
35960;BMP280;22043;50.970;7.192;2023-05-07T15:57:19;99381.25;;;17.02
35960;BMP280;22043;50.970;7.192;2023-05-07T15:59:51;99383.38;;;16.98
35960;BMP280;22043;50.970;7.192;2023-05-07T16:02:17;99378.69;;;17.08
35960;BMP280;22043;50.970;7.192;2023-05-07T16:04:42;99388.53;;;17.18
35960;BMP280;22043;50.970;7.192;2023-05-07T16:07:08;99366.50;;;17.27
35960;BMP280;22043;50.970;7.192;2023-05-07T16:09:36;99382.28;;;17.27